createdAt,value
2022-11-24T00:01:24.627Z,37.03
2022-11-24T00:03:57.849Z,38.22
2022-11-24T00:06:25.787Z,40.55
2022-11-24T00:08:52.998Z,51.83
2022-11-24T00:11:26.933Z,40.55
2022-11-24T00:13:54.661Z,42.65
2022-11-24T00:16:24.770Z,34.15
2022-11-24T00:18:54.632Z,36.35
2022-11-24T00:21:22.164Z,30.20
2022-11-24T00:23:50.026Z,39.95
2022-11-24T00:26:18.878Z,36.58
2022-11-24T00:28:48.031Z,34.35
2022-11-24T00:31:20.938Z,37.40
2022-11-24T00:33:49.263Z,37.67
2022-11-24T00:36:17.742Z,38.15
2022-11-24T00:38:45.938Z,40.95
2022-11-24T00:41:13.425Z,51.75
2022-11-24T00:43:41.099Z,42.60
2022-11-24T00:46:08.089Z,49.42
2022-11-24T00:48:35.075Z,60.25
2022-11-24T00:51:05.734Z,51.72
2022-11-24T00:53:32.950Z,51.00
2022-11-24T00:56:04.109Z,47.05
2022-11-24T00:58:31.868Z,48.65
2022-11-24T01:01:12.017Z,53.05
2022-11-24T01:03:41.204Z,59.97
2022-11-24T01:06:19.627Z,60.08
2022-11-24T01:08:47.243Z,54.58
2022-11-24T01:11:21.198Z,54.25
2022-11-24T01:13:52.175Z,55.58
2022-11-24T01:16:23.970Z,63.95
2022-11-24T01:18:51.421Z,61.42
2022-11-24T01:21:19.638Z,67.60
2022-11-24T01:23:46.998Z,61.05
2022-11-24T01:26:20.197Z,61.30
2022-11-24T01:28:48.007Z,57.85
2022-11-24T01:31:16.968Z,58.88
2022-11-24T01:33:44.483Z,66.43
2022-11-24T01:36:11.748Z,56.55
2022-11-24T01:38:38.965Z,59.08
2022-11-24T01:41:10.784Z,55.72
2022-11-24T01:43:38.318Z,55.17
2022-11-24T01:46:17.459Z,48.95
2022-11-24T01:48:49.708Z,44.58
2022-11-24T01:51:23.407Z,52.17
2022-11-24T01:53:57.494Z,46.45
2022-11-24T01:56:25.718Z,55.53
2022-11-24T01:58:57.860Z,47.03
2022-11-24T02:01:25.774Z,47.50
2022-11-24T02:03:53.683Z,51.70
2022-11-24T02:06:25.397Z,49.35
2022-11-24T02:09:00.400Z,50.05
2022-11-24T02:11:31.012Z,56.65
2022-11-24T02:13:58.199Z,50.17
2022-11-24T02:16:26.334Z,49.45
2022-11-24T02:18:53.900Z,52.58
2022-11-24T02:21:20.742Z,47.25
2022-11-24T02:23:54.290Z,47.70
2022-11-24T02:26:41.746Z,45.85
2022-11-24T02:29:10.725Z,44.15
2022-11-24T02:31:40.212Z,61.03
2022-11-24T02:34:07.317Z,58.38
2022-11-24T02:36:34.147Z,52.70
2022-11-24T02:39:01.011Z,48.08
2022-11-24T02:41:29.188Z,68.97
2022-11-24T02:44:00.186Z,48.60
2022-11-24T02:46:27.479Z,52.58
2022-11-24T02:48:54.363Z,59.17
2022-11-24T02:51:21.287Z,51.85
2022-11-24T02:53:48.162Z,53.08
2022-11-24T02:56:15.104Z,57.40
2022-11-24T02:58:41.960Z,62.28
2022-11-24T03:01:08.838Z,54.25
2022-11-24T03:03:35.899Z,59.80
2022-11-24T03:06:02.790Z,52.88
2022-11-24T03:08:29.734Z,70.35
2022-11-24T03:10:56.541Z,64.28
2022-11-24T03:13:23.558Z,51.20
2022-11-24T03:15:50.438Z,46.45
2022-11-24T03:18:17.353Z,56.80
2022-11-24T03:23:11.504Z,51.80
2022-11-24T03:25:38.410Z,51.40
2022-11-24T03:28:05.246Z,49.22
2022-11-24T03:30:32.218Z,48.10
2022-11-24T03:32:59.080Z,62.92
2022-11-24T03:35:26.125Z,51.88
2022-11-24T03:37:52.963Z,52.15
2022-11-24T03:40:20.018Z,55.22
2022-11-24T03:42:46.859Z,59.33
2022-11-24T03:48:00.537Z,53.93
2022-11-24T03:50:27.385Z,49.42
2022-11-24T03:52:54.198Z,51.05
2022-11-24T03:55:21.058Z,62.67
2022-11-24T03:57:48.035Z,53.17
2022-11-24T04:00:15.354Z,46.67
2022-11-24T04:02:42.280Z,34.83
2022-11-24T04:05:10.080Z,29.70
2022-11-24T04:07:36.918Z,31.15
2022-11-24T04:10:04.357Z,37.80
2022-11-24T04:12:46.802Z,27.42
2022-11-24T04:15:19.231Z,26.67
2022-11-24T04:17:48.744Z,33.30
2022-11-24T04:20:16.657Z,32.92
2022-11-24T04:22:44.175Z,32.20
2022-11-24T04:25:11.471Z,30.33
2022-11-24T04:27:39.148Z,37.55
2022-11-24T04:30:07.259Z,30.95
2022-11-24T04:32:35.327Z,25.58
2022-11-24T04:35:02.303Z,30.05
2022-11-24T04:37:29.570Z,24.48
2022-11-24T04:42:24.563Z,26.65
2022-11-24T04:44:51.414Z,28.92
2022-11-24T04:47:23.447Z,33.15
2022-11-24T04:49:51.417Z,29.25
2022-11-24T04:52:20.384Z,30.48
2022-11-24T04:54:48.936Z,25.80
2022-11-24T04:57:20.896Z,32.63
2022-11-24T04:59:50.077Z,35.40
2022-11-24T05:02:17.447Z,39.38
2022-11-24T05:04:44.956Z,39.83
2022-11-24T05:07:17.939Z,26.60
2022-11-24T05:10:05.199Z,29.15
2022-11-24T05:12:32.580Z,35.60
2022-11-24T05:15:00.596Z,36.05
2022-11-24T05:17:33.257Z,35.55
2022-11-24T05:20:00.821Z,36.55
2022-11-24T05:22:29.289Z,39.05
2022-11-24T05:24:57.420Z,44.00
2022-11-24T05:27:24.581Z,44.83
2022-11-24T05:29:51.772Z,38.78
2022-11-24T05:34:45.889Z,41.65
2022-11-24T05:39:39.450Z,45.10
2022-11-24T05:42:26.081Z,48.42
2022-11-24T05:44:53.783Z,53.13
2022-11-24T05:47:21.452Z,54.22
2022-11-24T05:49:48.343Z,50.72
2022-11-24T05:52:16.490Z,50.28
2022-11-24T05:54:43.412Z,51.85
2022-11-24T05:57:10.252Z,48.17
2022-11-24T05:59:37.207Z,52.97
2022-11-24T06:02:04.151Z,46.47
2022-11-24T06:04:32.442Z,46.08
2022-11-24T06:07:00.152Z,57.90
2022-11-24T06:09:27.689Z,67.38
2022-11-24T06:11:54.696Z,47.28
2022-11-24T06:14:22.004Z,47.15
2022-11-24T06:16:49.093Z,50.88
2022-11-24T06:19:15.937Z,43.47
2022-11-24T06:21:43.698Z,52.95
2022-11-24T06:24:10.515Z,39.08
2022-11-24T06:26:38.421Z,33.88
2022-11-24T06:29:05.459Z,43.28
2022-11-24T06:31:32.607Z,45.40
2022-11-24T06:34:00.852Z,63.63
2022-11-24T06:36:28.178Z,50.58
2022-11-24T06:38:55.033Z,59.45
2022-11-24T06:41:21.825Z,65.88
2022-11-24T06:43:49.720Z,45.92
2022-11-24T06:46:16.602Z,45.78
2022-11-24T06:48:43.724Z,54.90
2022-11-24T06:53:41.103Z,43.00
2022-11-24T06:56:15.634Z,36.17
2022-11-24T06:58:47.456Z,31.05
2022-11-24T07:01:20.125Z,34.20
2022-11-24T07:03:48.344Z,32.25
2022-11-24T07:06:16.022Z,38.42
2022-11-24T07:08:43.622Z,33.10
2022-11-24T07:11:15.878Z,36.05
2022-11-24T07:13:43.747Z,44.63
2022-11-24T07:16:20.433Z,47.42
2022-11-24T07:18:49.356Z,43.35
2022-11-24T07:21:16.508Z,44.05
2022-11-24T07:23:45.631Z,33.88
2022-11-24T07:26:12.452Z,33.70
2022-11-24T07:28:39.565Z,26.17
2022-11-24T07:31:15.619Z,27.83
2022-11-24T07:33:42.793Z,30.00
2022-11-24T07:36:10.012Z,26.95
2022-11-24T07:38:37.759Z,36.00
2022-11-24T07:41:07.361Z,40.58
2022-11-24T07:43:36.778Z,31.77
2022-11-24T07:46:05.705Z,36.15
2022-11-24T07:48:33.894Z,38.75
2022-11-24T07:51:04.721Z,34.08
2022-11-24T07:53:33.296Z,38.30
2022-11-24T07:56:02.439Z,42.13
2022-11-24T07:58:33.021Z,56.38
2022-11-24T08:01:09.126Z,52.88
2022-11-24T08:03:36.499Z,58.17
2022-11-24T08:08:51.310Z,66.82
2022-11-24T08:11:18.410Z,60.80
2022-11-24T08:13:45.984Z,63.90
2022-11-24T08:16:15.832Z,57.58
2022-11-24T08:18:44.242Z,56.00
2022-11-24T08:21:14.006Z,62.53
2022-11-24T08:23:42.589Z,70.72
2022-11-24T08:26:16.780Z,63.83
2022-11-24T08:28:46.040Z,52.30
2022-11-24T08:31:21.416Z,54.25
2022-11-24T08:33:50.299Z,48.92
2022-11-24T08:36:19.111Z,52.28
2022-11-24T08:38:47.221Z,58.22
2022-11-24T08:41:17.341Z,52.63
2022-11-24T08:43:44.884Z,57.78
2022-11-24T08:46:17.369Z,54.90
2022-11-24T08:48:50.352Z,65.28
2022-11-24T08:51:20.869Z,70.13
2022-11-24T08:53:47.796Z,56.28
2022-11-24T08:56:15.723Z,64.32
2022-11-24T08:58:42.727Z,52.75
2022-11-24T09:01:16.114Z,53.45
2022-11-24T09:03:49.900Z,62.28
2022-11-24T09:06:19.763Z,66.47
2022-11-24T09:08:46.594Z,77.25
2022-11-24T09:11:15.630Z,65.13
2022-11-24T09:13:42.945Z,67.88
2022-11-24T09:16:18.343Z,59.92
2022-11-24T09:18:45.528Z,61.33
2022-11-24T09:21:14.005Z,68.10
2022-11-24T09:23:41.749Z,51.80
2022-11-24T09:26:11.873Z,39.00
2022-11-24T09:28:39.150Z,35.22
2022-11-24T09:31:08.143Z,42.95
2022-11-24T09:33:35.421Z,40.22
2022-11-24T09:36:02.585Z,34.50
2022-11-24T09:38:29.586Z,52.85
2022-11-24T09:41:06.175Z,63.05
2022-11-24T09:43:43.180Z,54.08
2022-11-24T09:46:20.412Z,64.35
2022-11-24T09:51:17.682Z,50.30
2022-11-24T09:53:47.353Z,46.22
2022-11-24T09:56:26.463Z,39.22
2022-11-24T09:59:05.366Z,46.78
2022-11-24T10:01:37.901Z,34.05
2022-11-24T10:04:21.111Z,37.88
2022-11-24T10:06:56.675Z,25.33
2022-11-24T10:09:33.157Z,30.35
2022-11-24T10:12:21.515Z,21.38
2022-11-24T10:14:55.526Z,14.45
2022-11-24T10:17:49.697Z,8.18
2022-11-24T10:20:39.411Z,6.80
2022-11-24T10:23:46.089Z,10.25
2022-11-24T10:26:34.197Z,10.70
2022-11-24T10:29:10.951Z,13.07
2022-11-24T10:31:42.983Z,31.23
2022-11-24T10:34:10.399Z,45.92
2022-11-24T10:36:40.670Z,41.17
2022-11-24T10:39:15.171Z,35.58
2022-11-24T10:42:01.222Z,26.88
2022-11-24T10:44:30.017Z,31.75
2022-11-24T10:46:56.830Z,37.30
2022-11-24T10:49:31.365Z,35.83
2022-11-24T10:52:14.377Z,44.45
2022-11-24T10:54:59.521Z,46.10
2022-11-24T10:57:31.487Z,48.90
2022-11-24T10:59:58.736Z,42.47
2022-11-24T11:02:38.383Z,36.45
2022-11-24T11:05:42.434Z,33.90
2022-11-24T11:08:28.074Z,30.70
2022-11-24T11:11:16.601Z,34.17
2022-11-24T11:14:03.426Z,27.90
2022-11-24T11:17:00.650Z,43.55
2022-11-24T11:20:00.089Z,29.10
2022-11-24T11:22:31.667Z,30.98
2022-11-24T11:25:28.734Z,27.77
2022-11-24T11:28:26.824Z,22.95
2022-11-24T11:31:18.567Z,32.55
2022-11-24T11:34:06.300Z,29.45
2022-11-24T11:36:42.108Z,24.33
2022-11-24T11:39:16.891Z,24.00
2022-11-24T11:41:49.915Z,22.67
2022-11-24T11:44:32.461Z,23.75
2022-11-24T11:47:05.672Z,23.00
2022-11-24T11:49:32.692Z,21.90
2022-11-24T11:52:27.646Z,31.02
2022-11-24T11:55:15.835Z,22.05
2022-11-24T11:58:22.778Z,19.00
2022-11-24T12:01:34.186Z,30.10
2022-11-24T12:04:35.808Z,22.00
2022-11-24T12:07:24.774Z,23.75
2022-11-24T12:10:03.427Z,21.90
2022-11-24T12:12:47.411Z,24.67
2022-11-24T12:15:26.181Z,23.38
2022-11-24T12:18:04.425Z,19.95
2022-11-24T12:20:43.300Z,27.80
2022-11-24T12:23:23.657Z,22.75
2022-11-24T12:26:23.624Z,24.70
2022-11-24T12:29:09.236Z,28.00
2022-11-24T12:31:36.115Z,30.52
2022-11-24T12:34:18.161Z,29.27
2022-11-24T12:37:26.643Z,31.77
2022-11-24T12:40:13.678Z,25.73
2022-11-24T12:43:37.840Z,27.98
2022-11-24T12:46:23.990Z,18.40
2022-11-24T12:49:16.972Z,11.70
2022-11-24T12:51:49.481Z,18.15
2022-11-24T12:54:20.308Z,9.77
2022-11-24T12:57:02.619Z,13.60
2022-11-24T12:59:44.077Z,16.98
2022-11-24T13:02:29.025Z,15.00
2022-11-24T13:05:05.226Z,6.70
2022-11-24T13:07:47.985Z,11.07
2022-11-24T13:10:46.510Z,14.18
2022-11-24T13:13:12.989Z,10.38
2022-11-24T13:16:34.452Z,11.73
2022-11-24T13:19:14.915Z,16.55
2022-11-24T13:21:42.923Z,15.00
2022-11-24T13:24:19.986Z,12.32
2022-11-24T13:26:50.103Z,13.48
2022-11-24T13:29:35.624Z,13.82
2022-11-24T13:32:02.467Z,9.98
2022-11-24T13:34:42.909Z,12.32
2022-11-24T13:37:32.029Z,11.35
2022-11-24T13:40:11.999Z,11.05
2022-11-24T13:42:57.905Z,10.50
2022-11-24T13:45:40.298Z,15.77
2022-11-24T13:48:20.948Z,19.95
2022-11-24T13:50:53.500Z,20.23
2022-11-24T13:53:39.339Z,18.25
2022-11-24T13:56:11.383Z,13.77
2022-11-24T13:59:01.897Z,9.25
2022-11-24T14:01:33.152Z,11.32
2022-11-24T14:07:05.548Z,24.38
2022-11-24T14:09:47.652Z,16.15
2022-11-24T14:12:20.425Z,22.23
2022-11-24T14:14:49.433Z,13.52
2022-11-24T14:17:17.983Z,9.43
2022-11-24T14:19:50.961Z,16.52
2022-11-24T14:22:22.182Z,19.88
2022-11-24T14:24:54.819Z,7.60
2022-11-24T14:27:38.233Z,19.10
2022-11-24T14:30:08.326Z,10.40
2022-11-24T14:32:35.376Z,18.05
2022-11-24T14:35:02.645Z,17.45
2022-11-24T14:37:29.720Z,16.13
2022-11-24T14:39:56.645Z,15.30
2022-11-24T14:42:27.491Z,21.08
2022-11-24T14:44:59.129Z,19.40
2022-11-24T14:47:33.871Z,16.13
2022-11-24T14:50:12.387Z,14.93
2022-11-24T14:52:52.645Z,15.40
2022-11-24T14:55:35.374Z,15.55
2022-11-24T14:58:02.594Z,11.60
2022-11-24T15:00:31.912Z,21.48
2022-11-24T15:03:16.086Z,10.88
2022-11-24T15:05:58.659Z,17.67
2022-11-24T15:08:27.882Z,18.08
2022-11-24T15:11:03.195Z,11.65
2022-11-24T15:13:37.332Z,10.23
2022-11-24T15:16:15.947Z,19.67
2022-11-24T15:18:46.639Z,15.32
2022-11-24T15:21:18.922Z,13.60
2022-11-24T15:24:06.471Z,19.65
2022-11-24T15:26:38.494Z,20.50
2022-11-24T15:29:10.502Z,23.45
2022-11-24T15:31:38.544Z,22.52
2022-11-24T15:34:06.212Z,31.52
2022-11-24T15:36:33.618Z,30.80
2022-11-24T15:39:00.706Z,19.08
2022-11-24T15:41:32.861Z,19.27
2022-11-24T15:44:03.448Z,18.27
2022-11-24T15:46:38.277Z,20.38
2022-11-24T15:49:07.395Z,19.83
2022-11-24T15:51:38.056Z,23.48
2022-11-24T15:54:07.687Z,22.02
2022-11-24T15:56:36.971Z,31.65
2022-11-24T15:59:04.589Z,17.45
2022-11-24T16:01:33.917Z,17.45
2022-11-24T16:04:02.535Z,18.27
2022-11-24T16:06:29.916Z,16.70
2022-11-24T16:08:58.502Z,11.18
2022-11-24T16:11:25.966Z,23.48
2022-11-24T16:13:54.323Z,31.13
2022-11-24T16:16:25.021Z,27.23
2022-11-24T16:18:52.602Z,24.25
2022-11-24T16:21:19.904Z,21.90
2022-11-24T16:23:48.245Z,18.42
2022-11-24T16:26:15.137Z,31.75
2022-11-24T16:28:43.007Z,27.33
2022-11-24T16:31:10.126Z,24.80
2022-11-24T16:33:40.726Z,33.53
2022-11-24T16:36:08.577Z,25.60
2022-11-24T16:38:36.225Z,23.05
2022-11-24T16:41:03.128Z,16.10
2022-11-24T16:43:30.956Z,22.70
2022-11-24T16:46:07.625Z,31.92
2022-11-24T16:48:37.994Z,15.30
2022-11-24T16:51:10.610Z,16.02
2022-11-24T16:53:40.269Z,21.73
2022-11-24T16:56:08.992Z,16.35
2022-11-24T16:58:45.942Z,15.93
2022-11-24T17:01:15.720Z,18.92
2022-11-24T17:03:42.662Z,21.00
2022-11-24T17:06:12.695Z,15.75
2022-11-24T17:08:40.583Z,10.85
2022-11-24T17:11:13.908Z,14.73
2022-11-24T17:13:42.188Z,12.65
2022-11-24T17:16:11.714Z,20.65
2022-11-24T17:18:39.762Z,14.07
2022-11-24T17:21:10.179Z,23.50
2022-11-24T17:23:37.732Z,18.38
2022-11-24T17:26:07.508Z,11.50
2022-11-24T17:28:36.251Z,10.70
2022-11-24T17:31:07.451Z,15.15
2022-11-24T17:33:35.523Z,21.23
2022-11-24T17:36:04.210Z,31.60
2022-11-24T17:38:31.444Z,16.25
2022-11-24T17:40:58.791Z,20.63
2022-11-24T17:43:27.502Z,21.67
2022-11-24T17:45:56.179Z,25.10
2022-11-24T17:48:24.519Z,13.73
2022-11-24T17:51:12.601Z,22.70
2022-11-24T17:53:40.966Z,88.53
2022-11-24T17:56:12.170Z,29.15
2022-11-24T17:58:42.862Z,26.40
2022-11-24T18:01:11.533Z,29.42
2022-11-24T18:03:42.032Z,30.13
2022-11-24T18:06:14.067Z,30.55
2022-11-24T18:08:43.743Z,11.00
2022-11-24T18:11:12.480Z,13.50
2022-11-24T18:13:59.943Z,13.77
2022-11-24T18:16:28.363Z,18.35
2022-11-24T18:19:07.796Z,13.50
2022-11-24T18:21:36.255Z,11.65
2022-11-24T18:24:03.253Z,11.25
2022-11-24T18:26:30.113Z,20.00
2022-11-24T18:28:57.076Z,13.23
2022-11-24T18:31:24.079Z,16.90
2022-11-24T18:33:50.951Z,19.40
2022-11-24T18:36:23.559Z,12.80
2022-11-24T18:38:53.986Z,18.02
2022-11-24T18:41:21.731Z,23.95
2022-11-24T18:43:48.553Z,12.00
2022-11-24T18:46:18.374Z,14.20
2022-11-24T18:48:48.476Z,17.20
2022-11-24T18:51:15.420Z,18.75
2022-11-24T18:53:43.983Z,10.60
2022-11-24T18:56:17.842Z,29.77
2022-11-24T18:58:45.252Z,24.13
2022-11-24T19:01:13.834Z,21.20
2022-11-24T19:03:48.591Z,15.82
2022-11-24T19:06:19.344Z,10.05
2022-11-24T19:08:46.915Z,12.00
2022-11-24T19:11:28.649Z,13.10
2022-11-24T19:13:56.952Z,16.17
2022-11-24T19:16:25.205Z,16.15
2022-11-24T19:19:02.691Z,13.82
2022-11-24T19:21:48.314Z,14.60
2022-11-24T19:24:15.429Z,18.67
2022-11-24T19:26:42.318Z,19.67
2022-11-24T19:29:10.498Z,14.38
2022-11-24T19:31:39.667Z,16.20
2022-11-24T19:34:08.110Z,18.42
2022-11-24T19:36:35.319Z,10.43
2022-11-24T19:39:07.613Z,9.18
2022-11-24T19:41:34.670Z,13.25
2022-11-24T19:44:01.824Z,10.73
2022-11-24T19:46:29.910Z,9.38
2022-11-24T19:49:00.018Z,17.75
2022-11-24T19:51:31.071Z,11.35
2022-11-24T19:53:58.589Z,13.73
2022-11-24T19:56:27.901Z,13.07
2022-11-24T19:58:56.055Z,21.92
2022-11-24T20:01:31.889Z,16.38
2022-11-24T20:04:01.636Z,13.73
2022-11-24T20:06:31.633Z,11.15
2022-11-24T20:09:00.532Z,15.75
2022-11-24T20:11:28.456Z,15.27
2022-11-24T20:13:56.112Z,12.18
2022-11-24T20:16:29.704Z,13.90
2022-11-24T20:19:02.750Z,17.83
2022-11-24T20:24:06.076Z,14.90
2022-11-24T20:26:39.050Z,15.50
2022-11-24T20:29:09.690Z,14.52
2022-11-24T20:31:39.384Z,13.93
2022-11-24T20:34:07.773Z,17.30
2022-11-24T20:36:37.265Z,19.65
2022-11-24T20:39:07.552Z,21.83
2022-11-24T20:41:37.500Z,18.73
2022-11-24T20:44:10.648Z,14.95
2022-11-24T20:46:38.973Z,24.35
2022-11-24T20:49:08.742Z,16.95
2022-11-24T20:51:39.875Z,18.63
2022-11-24T20:54:08.933Z,12.63
2022-11-24T20:56:39.841Z,15.48
2022-11-24T20:59:07.848Z,14.57
2022-11-24T21:01:40.737Z,10.10
2022-11-24T21:04:09.904Z,13.82
2022-11-24T21:06:37.358Z,21.80
2022-11-24T21:09:05.670Z,19.70
2022-11-24T21:11:33.055Z,21.50
2022-11-24T21:14:00.909Z,32.72
2022-11-24T21:16:30.845Z,33.63
2022-11-24T21:19:03.966Z,40.28
2022-11-24T21:21:35.065Z,34.28
2022-11-24T21:24:03.740Z,36.28
2022-11-24T21:26:31.087Z,34.78
2022-11-24T21:28:58.376Z,39.72
2022-11-24T21:31:26.108Z,55.53
2022-11-24T21:33:54.359Z,35.65
2022-11-24T21:36:23.634Z,32.75
2022-11-24T21:38:52.408Z,31.08
2022-11-24T21:41:20.605Z,23.75
2022-11-24T21:43:47.549Z,31.42
2022-11-24T21:46:14.922Z,25.55
2022-11-24T21:48:48.564Z,26.80
2022-11-24T21:51:17.724Z,16.10
2022-11-24T21:53:45.703Z,18.10
2022-11-24T21:56:18.294Z,24.33
2022-11-24T21:58:53.788Z,29.05
2022-11-24T22:01:23.154Z,42.10
2022-11-24T22:03:50.569Z,32.22
2022-11-24T22:06:19.386Z,40.55
2022-11-24T22:08:47.622Z,50.20
2022-11-24T22:11:17.165Z,77.43
2022-11-24T22:13:44.443Z,16.85
2022-11-24T22:16:14.763Z,21.02
2022-11-24T22:18:43.419Z,30.05
2022-11-24T22:21:13.317Z,35.85
2022-11-24T22:23:40.612Z,47.30
2022-11-24T22:26:16.630Z,46.58
2022-11-24T22:28:44.776Z,50.15
2022-11-24T22:31:15.343Z,47.15
2022-11-24T22:33:43.796Z,46.97
2022-11-24T22:36:12.172Z,44.28
2022-11-24T22:38:39.731Z,46.47
2022-11-24T22:41:12.577Z,39.53
2022-11-24T22:43:41.361Z,27.33
2022-11-24T22:46:14.397Z,14.02
2022-11-24T22:48:41.991Z,22.70
2022-11-24T22:51:17.656Z,21.52
2022-11-24T22:53:49.250Z,44.80
2022-11-24T22:56:17.443Z,21.80
2022-11-24T22:58:44.391Z,10.77
2022-11-24T23:01:14.051Z,13.85
2022-11-24T23:03:41.641Z,12.05
2022-11-24T23:06:22.953Z,14.38
2022-11-24T23:08:50.929Z,20.02
2022-11-24T23:11:29.140Z,19.83
2022-11-24T23:14:00.612Z,14.23
2022-11-24T23:16:29.033Z,14.60
2022-11-24T23:18:58.972Z,26.88
2022-11-24T23:21:28.618Z,32.08
2022-11-24T23:23:56.554Z,30.65
2022-11-24T23:26:28.880Z,25.00
2022-11-24T23:28:56.006Z,24.13
2022-11-24T23:31:27.512Z,24.00
2022-11-24T23:33:55.273Z,20.27
2022-11-24T23:36:22.693Z,17.80
2022-11-24T23:38:50.088Z,26.67
2022-11-24T23:41:23.303Z,42.63
2022-11-24T23:43:50.897Z,22.63
2022-11-24T23:46:23.190Z,24.83
2022-11-24T23:48:51.439Z,31.58
2022-11-24T23:51:24.404Z,43.17
2022-11-24T23:53:52.209Z,33.85
2022-11-24T23:56:26.759Z,53.83
2022-11-24T23:58:53.816Z,35.05
